createdAt,value
2018-12-10T00:01:59.402Z,5.49
2018-12-10T00:06:55.545Z,5.48
2018-12-10T00:11:51.555Z,5.46
2018-12-10T00:16:47.565Z,5.50
2018-12-10T00:21:43.578Z,5.49
2018-12-10T00:26:39.649Z,5.49
2018-12-10T00:31:37.158Z,5.50
2018-12-10T00:36:33.257Z,5.53
2018-12-10T00:41:29.391Z,5.49
2018-12-10T00:46:25.549Z,5.42
2018-12-10T00:51:21.565Z,5.35
2018-12-10T00:56:17.578Z,5.31
2018-12-10T01:01:13.738Z,5.34
2018-12-10T01:06:09.762Z,5.39
2018-12-10T01:11:05.774Z,5.43
2018-12-10T01:16:01.790Z,5.42
2018-12-10T01:20:57.841Z,5.47
2018-12-10T01:25:53.978Z,5.46
2018-12-10T01:30:50.001Z,5.42
2018-12-10T01:35:46.027Z,5.39
2018-12-10T01:40:42.066Z,5.42
2018-12-10T01:45:38.082Z,5.33
2018-12-10T01:50:34.196Z,5.15
2018-12-10T01:55:30.225Z,5.11
2018-12-10T02:00:26.273Z,5.11
2018-12-10T02:05:22.305Z,5.06
2018-12-10T02:10:18.474Z,5.09
2018-12-10T02:15:14.485Z,5.10
2018-12-10T02:20:10.546Z,5.10
2018-12-10T02:25:06.558Z,5.06
2018-12-10T02:30:03.104Z,5.06
2018-12-10T02:34:59.126Z,5.07
2018-12-10T02:39:55.152Z,5.11
2018-12-10T02:44:51.173Z,5.13
2018-12-10T02:49:47.293Z,5.16
2018-12-10T02:54:43.299Z,5.18
2018-12-10T02:59:39.306Z,5.18
2018-12-10T03:04:35.343Z,5.13
2018-12-10T03:09:31.372Z,5.08
2018-12-10T03:14:27.407Z,4.98
2018-12-10T03:19:23.553Z,4.99
2018-12-10T03:24:19.582Z,4.91
2018-12-10T03:29:15.610Z,4.87
2018-12-10T03:34:11.621Z,4.89
2018-12-10T03:39:07.703Z,4.99
2018-12-10T03:44:04.209Z,4.97
2018-12-10T03:49:00.234Z,5.02
2018-12-10T03:53:56.253Z,4.95
2018-12-10T03:58:52.275Z,4.89
2018-12-10T04:03:48.315Z,4.93
2018-12-10T04:08:44.393Z,4.90
2018-12-10T04:13:40.503Z,4.88
2018-12-10T04:18:36.545Z,4.88
2018-12-10T04:23:32.559Z,4.94
2018-12-10T04:28:28.556Z,4.92
2018-12-10T04:33:24.565Z,4.87
2018-12-10T04:38:20.602Z,4.89
2018-12-10T04:43:16.613Z,4.89
2018-12-10T04:48:12.639Z,4.83
2018-12-10T04:53:08.660Z,4.79
2018-12-10T04:58:04.668Z,4.70
2018-12-10T05:03:00.690Z,4.72
2018-12-10T05:07:56.705Z,4.67
2018-12-10T05:12:52.713Z,4.58
2018-12-10T05:17:48.721Z,4.63
2018-12-10T05:22:44.742Z,4.61
2018-12-10T05:27:40.761Z,4.51
2018-12-10T05:32:37.725Z,4.56
2018-12-10T05:37:33.738Z,4.53
2018-12-10T05:42:29.748Z,4.54
2018-12-10T05:47:25.790Z,4.56
2018-12-10T05:52:21.798Z,4.55
2018-12-10T05:57:17.822Z,4.57
2018-12-10T06:02:16.774Z,4.53
2018-12-10T06:07:12.825Z,4.49
2018-12-10T06:12:08.847Z,4.45
2018-12-10T06:17:04.875Z,4.40
2018-12-10T06:22:00.917Z,4.40
2018-12-10T06:26:57.061Z,4.40
2018-12-10T06:31:57.791Z,4.41
2018-12-10T06:36:55.998Z,4.40
2018-12-10T06:41:52.034Z,4.33
2018-12-10T06:46:48.085Z,4.23
2018-12-10T06:51:44.146Z,4.19
2018-12-10T06:56:40.198Z,4.25
2018-12-10T07:01:40.141Z,4.21
2018-12-10T07:06:36.285Z,4.19
2018-12-10T07:11:32.369Z,4.28
2018-12-10T07:16:28.437Z,4.28
2018-12-10T07:21:24.483Z,4.25
2018-12-10T07:26:20.552Z,4.29
2018-12-10T07:31:16.630Z,4.28
2018-12-10T07:36:12.711Z,4.18
2018-12-10T07:41:08.781Z,4.17
2018-12-10T07:46:04.862Z,4.14
2018-12-10T07:51:00.951Z,4.19
2018-12-10T07:55:57.010Z,4.26
2018-12-10T08:00:53.062Z,4.35
2018-12-10T08:05:49.087Z,4.37
2018-12-10T08:10:45.238Z,4.35
2018-12-10T08:15:41.330Z,4.43
2018-12-10T08:20:37.390Z,4.49
2018-12-10T08:25:33.434Z,4.42
2018-12-10T08:30:29.491Z,4.43
2018-12-10T08:35:25.650Z,4.46
2018-12-10T08:40:21.758Z,4.52
2018-12-10T08:45:17.882Z,4.60
2018-12-10T08:50:13.955Z,4.62
2018-12-10T08:55:10.028Z,4.79
2018-12-10T09:00:07.108Z,4.91
2018-12-10T09:05:03.715Z,4.78
2018-12-10T09:09:59.757Z,4.79
2018-12-10T09:14:55.811Z,4.77
2018-12-10T09:19:51.897Z,4.84
2018-12-10T09:24:47.958Z,5.00
2018-12-10T09:29:44.150Z,5.09
2018-12-10T09:34:40.615Z,5.00
2018-12-10T09:39:36.692Z,5.10
2018-12-10T09:44:32.757Z,5.04
2018-12-10T09:49:28.804Z,4.96
2018-12-10T09:54:24.998Z,4.92
2018-12-10T09:59:21.073Z,4.99
2018-12-10T10:04:17.149Z,5.03
2018-12-10T10:09:13.169Z,5.13
2018-12-10T10:14:09.221Z,5.14
2018-12-10T10:19:05.534Z,5.08
2018-12-10T10:24:01.623Z,5.28
2018-12-10T10:28:59.613Z,5.21
2018-12-10T10:33:55.767Z,5.15
2018-12-10T10:38:51.830Z,5.14
2018-12-10T10:43:47.920Z,5.06
2018-12-10T10:48:43.994Z,5.26
2018-12-10T10:53:40.187Z,5.41
2018-12-10T10:58:43.200Z,5.47
2018-12-10T11:03:39.261Z,5.46
2018-12-10T11:08:35.333Z,5.52
2018-12-10T11:13:31.430Z,5.57
2018-12-10T11:18:27.589Z,5.80
2018-12-10T11:23:23.666Z,5.87
2018-12-10T11:28:19.708Z,5.91
2018-12-10T11:33:15.785Z,5.98
2018-12-10T11:38:11.862Z,6.10
2018-12-10T11:43:08.321Z,6.09
2018-12-10T11:48:04.646Z,6.27
2018-12-10T11:53:00.964Z,6.23
2018-12-10T11:57:57.017Z,6.16
2018-12-10T12:02:53.574Z,6.16
2018-12-10T12:07:49.658Z,6.12
2018-12-10T12:12:45.733Z,6.18
2018-12-10T12:17:41.940Z,6.26
2018-12-10T12:22:38.005Z,6.18
2018-12-10T12:27:34.292Z,6.18
2018-12-10T12:32:31.164Z,6.18
2018-12-10T12:37:27.245Z,6.22
2018-12-10T12:42:23.312Z,6.22
2018-12-10T12:47:20.808Z,6.22
2018-12-10T12:52:19.978Z,6.32
2018-12-10T12:57:16.571Z,6.04
2018-12-10T13:02:16.895Z,3.89
2018-12-10T13:07:13.124Z,2.63
2018-12-10T13:12:09.434Z,3.06
2018-12-10T13:17:08.805Z,3.47
2018-12-10T13:22:05.122Z,4.08
2018-12-10T13:27:01.199Z,4.41
2018-12-10T13:32:02.277Z,4.66
2018-12-10T13:36:58.378Z,5.06
2018-12-10T13:41:54.606Z,5.06
2018-12-10T13:46:50.686Z,5.05
2018-12-10T13:51:46.762Z,5.15
2018-12-10T13:56:42.850Z,5.06
2018-12-10T14:01:40.583Z,5.15
2018-12-10T14:06:36.763Z,5.08
2018-12-10T14:11:32.863Z,4.93
2018-12-10T14:16:28.922Z,4.73
2018-12-10T14:21:24.981Z,4.62
2018-12-10T14:26:21.029Z,4.64
2018-12-10T14:31:17.100Z,4.52
2018-12-10T14:36:13.195Z,4.48
2018-12-10T14:41:09.367Z,4.41
2018-12-10T14:46:05.460Z,4.40
2018-12-10T14:51:01.527Z,4.42
2018-12-10T14:55:57.615Z,4.38
2018-12-10T15:00:53.685Z,4.30
2018-12-10T15:05:49.891Z,4.25
2018-12-10T15:10:46.017Z,4.08
2018-12-10T15:15:42.077Z,4.11
2018-12-10T15:20:38.187Z,4.06
2018-12-10T15:25:34.259Z,4.00
2018-12-10T15:30:30.461Z,3.99
2018-12-10T15:35:26.692Z,3.89
2018-12-10T15:40:23.469Z,3.85
2018-12-10T15:45:19.971Z,3.89
2018-12-10T15:50:16.013Z,3.92
2018-12-10T15:55:12.206Z,3.96
2018-12-10T16:00:08.598Z,3.96
2018-12-10T16:05:04.901Z,4.10
2018-12-10T16:10:01.014Z,4.24
2018-12-10T16:14:57.160Z,4.20
2018-12-10T16:19:53.308Z,4.23
2018-12-10T16:24:49.454Z,4.30
2018-12-10T16:29:45.591Z,4.35
2018-12-10T16:34:41.654Z,4.30
2018-12-10T16:39:37.765Z,4.37
2018-12-10T16:44:35.493Z,4.52
2018-12-10T16:49:31.686Z,4.53
2018-12-10T16:54:27.721Z,4.65
2018-12-10T16:59:24.083Z,4.64
2018-12-10T17:04:20.235Z,4.64
2018-12-10T17:09:16.451Z,4.66
2018-12-10T17:14:12.949Z,4.68
2018-12-10T17:19:10.597Z,4.73
2018-12-10T17:24:06.665Z,4.76
2018-12-10T17:29:02.924Z,4.78
2018-12-10T17:33:59.060Z,4.79
2018-12-10T17:38:55.232Z,4.78
2018-12-10T17:43:51.401Z,4.77
2018-12-10T17:48:47.517Z,4.79
2018-12-10T17:53:43.990Z,4.77
2018-12-10T17:58:40.477Z,4.76
2018-12-10T18:03:36.621Z,4.74
2018-12-10T18:08:32.653Z,4.75
2018-12-10T18:13:28.785Z,4.73
2018-12-10T18:18:24.809Z,4.78
2018-12-10T18:23:20.831Z,4.72
2018-12-10T18:28:17.682Z,4.63
2018-12-10T18:33:13.850Z,4.61
2018-12-10T18:38:09.866Z,4.59
2018-12-10T18:43:05.896Z,4.58
2018-12-10T18:48:01.926Z,4.62
2018-12-10T18:52:59.870Z,4.60
2018-12-10T18:57:57.091Z,4.57
2018-12-10T19:02:53.179Z,4.60
2018-12-10T19:07:49.243Z,4.62
2018-12-10T19:12:45.311Z,4.69
2018-12-10T19:17:41.431Z,4.66
2018-12-10T19:22:37.561Z,4.72
2018-12-10T19:27:33.583Z,4.75
2018-12-10T19:32:30.377Z,4.78
2018-12-10T19:37:26.519Z,4.81
2018-12-10T19:42:22.652Z,4.80
2018-12-10T19:47:19.210Z,4.83
2018-12-10T19:52:15.580Z,4.80
2018-12-10T19:57:11.636Z,4.77
2018-12-10T20:02:09.010Z,4.68
2018-12-10T20:07:05.712Z,4.75
2018-12-10T20:12:01.887Z,4.73
2018-12-10T20:16:58.031Z,4.66
2018-12-10T20:21:54.063Z,4.70
2018-12-10T20:26:50.219Z,4.66
2018-12-10T20:31:46.303Z,4.69
2018-12-10T20:36:42.492Z,4.66
2018-12-10T20:41:38.670Z,4.59
2018-12-10T20:46:34.691Z,4.49
2018-12-10T20:51:30.804Z,4.47
2018-12-10T20:56:26.857Z,4.38
2018-12-10T21:01:22.884Z,4.39
2018-12-10T21:06:25.022Z,4.36
2018-12-10T21:11:21.041Z,4.35
2018-12-10T21:16:17.146Z,4.67
2018-12-10T21:21:13.221Z,4.43
2018-12-10T21:26:09.238Z,4.35
2018-12-10T21:31:05.262Z,4.31
2018-12-10T21:36:01.289Z,4.28
2018-12-10T21:40:57.361Z,4.33
2018-12-10T21:45:53.455Z,4.31
2018-12-10T21:50:49.529Z,4.32
2018-12-10T21:55:45.550Z,4.29
2018-12-10T22:00:41.950Z,4.28
2018-12-10T22:05:38.198Z,4.22
2018-12-10T22:10:34.346Z,4.27
2018-12-10T22:15:30.465Z,4.28
2018-12-10T22:20:26.507Z,4.19
2018-12-10T22:25:22.549Z,4.13
2018-12-10T22:30:18.576Z,4.13
2018-12-10T22:35:14.604Z,4.04
2018-12-10T22:40:10.691Z,3.98
2018-12-10T22:45:06.825Z,3.89
2018-12-10T22:50:04.796Z,3.74
2018-12-10T22:55:00.841Z,3.81
2018-12-10T22:59:57.128Z,3.71
2018-12-10T23:04:53.218Z,3.78
2018-12-10T23:09:49.373Z,3.87
2018-12-10T23:14:45.453Z,3.94
2018-12-10T23:19:41.545Z,3.99
2018-12-10T23:24:37.592Z,4.10
2018-12-10T23:29:33.616Z,4.03
2018-12-10T23:34:29.642Z,4.05
2018-12-10T23:39:25.700Z,4.05
2018-12-10T23:44:27.778Z,3.98
2018-12-10T23:49:23.802Z,3.93
2018-12-10T23:54:19.828Z,3.94
2018-12-10T23:59:15.920Z,3.93
